createdAt,value
2018-12-25T00:02:10.795Z,5.40
2018-12-25T00:04:38.955Z,5.13
2018-12-25T00:07:07.257Z,5.13
2018-12-25T00:09:35.420Z,4.77
2018-12-25T00:12:03.854Z,5.80
2018-12-25T00:14:32.255Z,5.70
2018-12-25T00:17:00.451Z,4.97
2018-12-25T00:19:28.612Z,4.83
2018-12-25T00:21:56.776Z,4.77
2018-12-25T00:24:24.975Z,4.37
2018-12-25T00:26:53.155Z,4.60
2018-12-25T00:29:21.340Z,4.90
2018-12-25T00:31:49.744Z,4.80
2018-12-25T00:34:17.936Z,5.10
2018-12-25T00:36:46.098Z,5.27
2018-12-25T00:39:14.296Z,5.30
2018-12-25T00:41:42.467Z,5.03
2018-12-25T00:44:10.680Z,5.30
2018-12-25T00:46:38.839Z,4.70
2018-12-25T00:49:14.578Z,4.77
2018-12-25T00:51:36.853Z,4.83
2018-12-25T00:54:05.115Z,4.40
2018-12-25T00:56:33.309Z,4.73
2018-12-25T00:59:01.507Z,4.63
2018-12-25T01:01:29.729Z,4.63
2018-12-25T01:03:57.919Z,4.90
2018-12-25T01:06:26.089Z,4.77
2018-12-25T01:08:54.288Z,5.10
2018-12-25T01:11:22.450Z,5.20
2018-12-25T01:13:50.656Z,5.27
2018-12-25T01:16:18.815Z,5.00
2018-12-25T01:18:47.018Z,4.83
2018-12-25T01:21:15.188Z,5.43
2018-12-25T01:23:43.397Z,4.87
2018-12-25T01:26:11.562Z,5.70
2018-12-25T01:28:39.927Z,5.37
2018-12-25T01:31:08.095Z,5.27
2018-12-25T01:33:36.296Z,5.70
2018-12-25T01:36:04.458Z,5.60
2018-12-25T01:38:32.619Z,5.83
2018-12-25T01:41:00.822Z,6.23
2018-12-25T01:43:28.987Z,5.80
2018-12-25T01:45:57.191Z,6.00
2018-12-25T01:48:25.360Z,5.67
2018-12-25T01:50:53.565Z,5.07
2018-12-25T01:53:21.737Z,6.00
2018-12-25T01:55:49.944Z,6.30
2018-12-25T01:58:18.109Z,5.27
2018-12-25T02:00:46.310Z,6.87
2018-12-25T02:03:14.478Z,4.93
2018-12-25T02:05:42.684Z,5.90
2018-12-25T02:08:10.850Z,6.77
2018-12-25T02:10:39.050Z,5.43
2018-12-25T02:13:07.215Z,4.13
2018-12-25T02:15:35.419Z,5.63
2018-12-25T02:18:03.617Z,6.47
2018-12-25T02:20:31.797Z,5.97
2018-12-25T02:22:59.991Z,5.73
2018-12-25T02:25:28.155Z,6.17
2018-12-25T02:27:56.369Z,6.20
2018-12-25T02:30:24.532Z,6.47
2018-12-25T02:32:52.838Z,5.97
2018-12-25T02:35:21.045Z,6.07
2018-12-25T02:37:49.210Z,5.80
2018-12-25T02:40:17.380Z,5.87
2018-12-25T02:42:45.585Z,5.83
2018-12-25T02:45:13.752Z,5.70
2018-12-25T02:47:42.055Z,6.00
2018-12-25T02:50:10.215Z,5.40
2018-12-25T02:52:38.411Z,6.07
2018-12-25T02:55:06.581Z,6.13
2018-12-25T02:57:34.783Z,6.73
2018-12-25T03:00:03.319Z,5.13
2018-12-25T03:02:31.532Z,5.83
2018-12-25T03:04:59.696Z,5.63
2018-12-25T03:07:27.901Z,6.37
2018-12-25T03:09:56.074Z,6.47
2018-12-25T03:12:24.271Z,5.87
2018-12-25T03:14:52.433Z,6.63
2018-12-25T03:17:20.636Z,5.83
2018-12-25T03:19:48.804Z,6.67
2018-12-25T03:22:17.011Z,5.53
2018-12-25T03:24:45.189Z,6.43
2018-12-25T03:27:13.393Z,7.03
2018-12-25T03:29:41.563Z,6.10
2018-12-25T03:32:09.773Z,6.90
2018-12-25T03:34:38.038Z,7.07
2018-12-25T03:37:06.242Z,7.00
2018-12-25T03:39:34.416Z,6.57
2018-12-25T03:42:02.626Z,7.03
2018-12-25T03:44:30.795Z,6.20
2018-12-25T03:46:58.965Z,5.77
2018-12-25T03:49:27.163Z,6.53
2018-12-25T03:51:55.327Z,6.10
2018-12-25T03:54:23.531Z,6.90
2018-12-25T03:56:51.699Z,6.17
2018-12-25T03:59:19.905Z,6.60
2018-12-25T04:01:48.068Z,6.27
2018-12-25T04:04:16.277Z,6.83
2018-12-25T04:06:44.451Z,6.67
2018-12-25T04:09:12.652Z,6.23
2018-12-25T04:11:40.825Z,7.33
2018-12-25T04:14:09.028Z,6.17
2018-12-25T04:16:37.191Z,7.23
2018-12-25T04:19:05.398Z,7.07
2018-12-25T04:21:33.564Z,6.43
2018-12-25T04:24:01.768Z,7.20
2018-12-25T04:26:29.937Z,6.87
2018-12-25T04:28:58.137Z,6.77
2018-12-25T04:31:26.304Z,6.73
2018-12-25T04:33:54.507Z,6.10
2018-12-25T04:36:22.678Z,7.03
2018-12-25T04:38:50.883Z,6.90
2018-12-25T04:41:19.051Z,7.07
2018-12-25T04:43:47.254Z,6.87
2018-12-25T04:46:15.419Z,6.77
2018-12-25T04:48:43.617Z,7.23
2018-12-25T04:51:11.794Z,6.80
2018-12-25T04:53:40.002Z,7.23
2018-12-25T04:56:08.168Z,6.63
2018-12-25T04:58:36.370Z,6.97
2018-12-25T05:01:04.532Z,6.93
2018-12-25T05:03:32.736Z,7.20
2018-12-25T05:06:00.896Z,6.40
2018-12-25T05:08:29.115Z,6.80
2018-12-25T05:10:57.283Z,7.07
2018-12-25T05:13:25.492Z,7.30
2018-12-25T05:15:53.656Z,8.07
2018-12-25T05:18:21.860Z,7.50
2018-12-25T05:20:50.064Z,6.47
2018-12-25T05:23:18.240Z,7.23
2018-12-25T05:25:46.452Z,7.20
2018-12-25T05:28:14.628Z,6.80
2018-12-25T05:30:42.834Z,8.23
2018-12-25T05:33:11.082Z,6.73
2018-12-25T05:35:39.283Z,6.63
2018-12-25T05:38:07.455Z,8.00
2018-12-25T05:40:35.664Z,7.60
2018-12-25T05:43:03.837Z,6.97
2018-12-25T05:45:32.048Z,7.40
2018-12-25T05:48:00.206Z,6.87
2018-12-25T05:50:28.411Z,6.13
2018-12-25T05:52:56.587Z,7.93
2018-12-25T05:55:24.796Z,7.40
2018-12-25T05:57:52.965Z,7.03
2018-12-25T06:00:21.126Z,8.27
2018-12-25T06:02:49.331Z,7.77
2018-12-25T06:05:17.504Z,6.20
2018-12-25T06:07:45.704Z,7.63
2018-12-25T06:10:13.870Z,6.60
2018-12-25T06:12:42.143Z,7.47
2018-12-25T06:15:10.343Z,6.30
2018-12-25T06:17:38.547Z,9.37
2018-12-25T06:20:06.725Z,10.23
2018-12-25T06:22:34.939Z,11.00
2018-12-25T06:25:03.121Z,9.30
2018-12-25T06:27:31.316Z,8.57
2018-12-25T06:29:59.480Z,8.40
2018-12-25T06:32:27.683Z,7.20
2018-12-25T06:34:55.848Z,7.40
2018-12-25T06:37:24.061Z,8.63
2018-12-25T06:39:52.233Z,9.30
2018-12-25T06:42:20.444Z,8.27
2018-12-25T06:44:48.611Z,7.20
2018-12-25T06:47:16.817Z,6.27
2018-12-25T06:49:44.989Z,8.43
2018-12-25T06:52:13.186Z,9.13
2018-12-25T06:54:41.376Z,6.10
2018-12-25T06:57:09.585Z,9.27
2018-12-25T06:59:37.752Z,7.33
2018-12-25T07:02:05.956Z,8.57
2018-12-25T07:04:34.126Z,9.20
2018-12-25T07:07:02.333Z,9.73
2018-12-25T07:09:30.499Z,5.97
2018-12-25T07:11:58.708Z,6.30
2018-12-25T07:14:26.876Z,6.67
2018-12-25T07:16:55.096Z,5.27
2018-12-25T07:19:23.260Z,8.30
2018-12-25T07:21:51.432Z,7.93
2018-12-25T07:24:19.635Z,7.07
2018-12-25T07:26:47.809Z,5.30
2018-12-25T07:29:16.008Z,6.37
2018-12-25T07:31:44.179Z,8.37
2018-12-25T07:34:12.389Z,8.17
2018-12-25T07:36:40.560Z,7.87
2018-12-25T07:39:08.767Z,7.70
2018-12-25T07:41:36.937Z,8.23
2018-12-25T07:44:05.140Z,8.10
2018-12-25T07:46:33.312Z,8.97
2018-12-25T07:49:01.590Z,8.43
2018-12-25T07:51:29.781Z,8.90
2018-12-25T07:53:57.991Z,7.07
2018-12-25T07:56:26.162Z,5.70
2018-12-25T07:58:54.372Z,8.20
2018-12-25T08:01:22.544Z,9.00
2018-12-25T08:03:50.747Z,9.00
2018-12-25T08:06:18.925Z,9.67
2018-12-25T08:08:47.131Z,10.30
2018-12-25T08:11:15.300Z,8.83
2018-12-25T08:13:43.509Z,9.30
2018-12-25T08:16:11.679Z,8.57
2018-12-25T08:18:40.244Z,9.30
2018-12-25T08:21:08.459Z,8.90
2018-12-25T08:23:36.671Z,9.67
2018-12-25T08:26:04.836Z,8.73
2018-12-25T08:28:33.018Z,9.43
2018-12-25T08:31:01.225Z,9.90
2018-12-25T08:33:29.402Z,9.27
2018-12-25T08:35:57.600Z,6.53
2018-12-25T08:38:25.772Z,8.27
2018-12-25T08:41:06.137Z,8.97
2018-12-25T08:43:34.939Z,7.07
2018-12-25T08:46:03.151Z,9.30
2018-12-25T08:48:31.388Z,8.57
2018-12-25T08:50:59.596Z,11.00
2018-12-25T08:53:27.768Z,7.00
2018-12-25T08:55:55.975Z,7.80
2018-12-25T08:58:24.140Z,8.70
2018-12-25T09:00:52.344Z,8.10
2018-12-25T09:03:20.524Z,8.57
2018-12-25T09:06:02.001Z,9.53
2018-12-25T09:08:34.793Z,10.40
2018-12-25T09:11:00.472Z,9.23
2018-12-25T09:13:28.894Z,9.70
2018-12-25T09:15:57.264Z,8.30
2018-12-25T09:18:25.444Z,10.37
2018-12-25T09:20:53.649Z,9.07
2018-12-25T09:23:21.823Z,10.83
2018-12-25T09:25:50.028Z,9.63
2018-12-25T09:28:18.200Z,9.10
2018-12-25T09:30:46.404Z,8.90
2018-12-25T09:33:14.749Z,8.27
2018-12-25T09:35:42.955Z,8.83
2018-12-25T09:38:11.123Z,9.27
2018-12-25T09:40:39.332Z,10.13
2018-12-25T09:43:07.497Z,6.97
2018-12-25T09:45:35.700Z,9.43
2018-12-25T09:48:03.875Z,9.30
2018-12-25T09:50:32.087Z,10.07
2018-12-25T09:53:00.360Z,10.80
2018-12-25T09:55:28.567Z,9.70
2018-12-25T09:57:56.749Z,9.97
2018-12-25T10:00:24.917Z,5.50
2018-12-25T10:02:53.127Z,9.90
2018-12-25T10:05:21.300Z,10.00
2018-12-25T10:07:49.504Z,9.07
2018-12-25T10:10:17.680Z,10.10
2018-12-25T10:12:45.887Z,6.93
2018-12-25T10:15:14.059Z,9.77
2018-12-25T10:17:42.269Z,9.57
2018-12-25T10:20:10.441Z,8.97
2018-12-25T10:22:38.648Z,10.37
2018-12-25T10:25:06.811Z,9.13
2018-12-25T10:27:35.014Z,9.83
2018-12-25T10:30:03.183Z,9.13
2018-12-25T10:32:31.392Z,10.43
2018-12-25T10:34:59.564Z,9.70
2018-12-25T10:37:27.784Z,9.90
2018-12-25T10:39:55.956Z,9.50
2018-12-25T10:42:24.167Z,8.33
2018-12-25T10:44:52.339Z,8.57
2018-12-25T10:47:20.549Z,9.40
2018-12-25T10:49:48.718Z,10.20
2018-12-25T10:52:16.927Z,9.93
2018-12-25T10:54:45.095Z,9.60
2018-12-25T10:57:13.303Z,10.13
2018-12-25T10:59:41.512Z,11.20
2018-12-25T11:02:09.680Z,9.73
2018-12-25T11:04:37.848Z,10.10
2018-12-25T11:07:06.086Z,8.30
2018-12-25T11:09:34.270Z,11.10
2018-12-25T11:12:03.406Z,10.43
2018-12-25T11:14:31.609Z,7.10
2018-12-25T11:16:59.779Z,8.13
2018-12-25T11:19:27.983Z,9.73
2018-12-25T11:21:56.159Z,9.10
2018-12-25T11:24:24.360Z,9.40
2018-12-25T11:26:52.533Z,9.70
2018-12-25T11:29:20.750Z,9.87
2018-12-25T11:31:48.912Z,9.87
2018-12-25T11:34:17.115Z,9.73
2018-12-25T11:36:45.288Z,9.63
2018-12-25T11:39:13.564Z,8.63
2018-12-25T11:41:41.738Z,8.40
2018-12-25T11:44:09.947Z,8.50
2018-12-25T11:46:38.112Z,7.87
2018-12-25T11:49:06.316Z,9.67
2018-12-25T11:51:34.488Z,10.37
2018-12-25T11:54:02.695Z,8.93
2018-12-25T11:56:30.873Z,8.63
2018-12-25T11:58:59.073Z,8.93
2018-12-25T12:01:27.249Z,8.40
2018-12-25T12:03:55.448Z,8.33
2018-12-25T12:06:23.617Z,8.80
2018-12-25T12:08:51.825Z,8.57
2018-12-25T12:11:19.995Z,7.60
2018-12-25T12:13:48.162Z,8.83
2018-12-25T12:16:16.366Z,7.10
2018-12-25T12:18:44.532Z,7.80
2018-12-25T12:21:12.737Z,8.83
2018-12-25T12:23:40.919Z,8.97
2018-12-25T12:26:09.100Z,8.33
2018-12-25T12:28:37.272Z,7.70
2018-12-25T12:31:05.476Z,8.13
2018-12-25T12:33:33.639Z,7.00
2018-12-25T12:36:01.845Z,7.83
2018-12-25T12:38:30.016Z,7.93
2018-12-25T12:40:58.219Z,8.70
2018-12-25T12:43:26.388Z,10.23
2018-12-25T12:46:06.941Z,9.43
2018-12-25T12:48:36.649Z,9.77
2018-12-25T12:51:04.805Z,7.53
2018-12-25T12:53:32.964Z,7.43
2018-12-25T12:56:01.166Z,7.37
2018-12-25T12:58:29.336Z,8.10
2018-12-25T13:00:57.549Z,9.70
2018-12-25T13:03:25.719Z,6.80
2018-12-25T13:05:53.938Z,8.00
2018-12-25T13:08:22.105Z,9.57
2018-12-25T13:10:50.310Z,8.23
2018-12-25T13:13:18.513Z,8.20
2018-12-25T13:15:46.681Z,5.30
2018-12-25T13:18:14.881Z,5.70
2018-12-25T13:20:43.048Z,7.50
2018-12-25T13:23:11.256Z,5.17
2018-12-25T13:25:39.423Z,7.53
2018-12-25T13:28:08.686Z,7.23
2018-12-25T13:30:36.850Z,6.63
2018-12-25T13:33:05.051Z,7.43
2018-12-25T13:35:33.224Z,7.70
2018-12-25T13:38:01.428Z,5.67
2018-12-25T13:40:29.598Z,8.10
2018-12-25T13:42:57.803Z,11.30
2018-12-25T13:45:26.354Z,7.77
2018-12-25T13:47:54.551Z,8.60
2018-12-25T13:50:24.917Z,8.53
2018-12-25T13:52:53.253Z,7.43
2018-12-25T13:55:21.421Z,8.93
2018-12-25T13:57:49.628Z,7.10
2018-12-25T14:00:17.792Z,7.20
2018-12-25T14:02:45.996Z,8.10
2018-12-25T14:05:14.176Z,7.73
2018-12-25T14:07:42.379Z,5.60
2018-12-25T14:10:10.549Z,4.73
2018-12-25T14:12:38.752Z,6.27
2018-12-25T14:15:06.921Z,5.27
2018-12-25T14:17:35.115Z,6.43
2018-12-25T14:20:03.279Z,6.23
2018-12-25T14:22:31.480Z,6.43
2018-12-25T14:24:59.643Z,6.13
2018-12-25T14:27:27.848Z,8.27
2018-12-25T14:29:56.019Z,6.17
2018-12-25T14:32:24.223Z,6.73
2018-12-25T14:35:03.030Z,5.77
2018-12-25T14:37:31.639Z,6.03
2018-12-25T14:40:00.050Z,6.30
2018-12-25T14:42:28.208Z,6.50
2018-12-25T14:44:56.653Z,6.33
2018-12-25T14:47:24.815Z,5.93
2018-12-25T14:49:53.253Z,6.07
2018-12-25T14:52:21.414Z,6.10
2018-12-25T14:54:49.613Z,5.13
2018-12-25T14:57:17.773Z,6.30
2018-12-25T14:59:45.980Z,7.00
2018-12-25T15:02:14.215Z,7.07
2018-12-25T15:04:42.449Z,6.63
2018-12-25T15:07:10.586Z,6.07
2018-12-25T15:09:38.785Z,6.60
2018-12-25T15:12:06.944Z,6.67
2018-12-25T15:14:35.150Z,5.57
2018-12-25T15:17:03.320Z,9.23
2018-12-25T15:19:31.525Z,12.87
2018-12-25T15:21:59.693Z,10.47
2018-12-25T15:24:27.894Z,12.43
2018-12-25T15:26:56.067Z,10.77
2018-12-25T15:29:24.276Z,12.60
2018-12-25T15:31:52.447Z,12.77
2018-12-25T15:34:20.652Z,12.03
2018-12-25T15:36:48.845Z,11.83
2018-12-25T15:39:17.051Z,7.30
2018-12-25T15:41:45.232Z,10.53
2018-12-25T15:44:13.444Z,9.53
2018-12-25T15:46:41.612Z,6.53
2018-12-25T15:49:09.818Z,6.87
2018-12-25T15:51:37.989Z,6.43
2018-12-25T15:54:06.187Z,6.70
2018-12-25T15:56:34.349Z,6.70
2018-12-25T15:59:02.548Z,7.73
2018-12-25T16:01:30.711Z,6.73
2018-12-25T16:03:58.919Z,7.47
2018-12-25T16:06:27.096Z,7.73
2018-12-25T16:08:55.262Z,7.17
2018-12-25T16:11:23.464Z,7.47
2018-12-25T16:13:51.623Z,7.40
2018-12-25T16:16:19.834Z,7.17
2018-12-25T16:18:47.999Z,7.90
2018-12-25T16:21:16.196Z,6.53
2018-12-25T16:23:45.474Z,7.00
2018-12-25T16:26:14.167Z,6.00
2018-12-25T16:28:42.339Z,6.30
2018-12-25T16:31:10.539Z,6.90
2018-12-25T16:33:38.773Z,6.60
2018-12-25T16:36:08.785Z,7.53
2018-12-25T16:38:36.796Z,6.90
2018-12-25T16:41:04.995Z,7.13
2018-12-25T16:43:33.160Z,7.50
2018-12-25T16:46:01.376Z,6.40
2018-12-25T16:48:29.545Z,8.57
2018-12-25T16:50:57.752Z,9.97
2018-12-25T16:53:25.919Z,9.97
2018-12-25T16:55:54.129Z,9.47
2018-12-25T16:58:22.529Z,9.13
2018-12-25T17:00:50.975Z,9.60
2018-12-25T17:03:19.134Z,8.37
2018-12-25T17:05:47.581Z,7.47
2018-12-25T17:08:15.984Z,9.00
2018-12-25T17:10:44.181Z,8.90
2018-12-25T17:13:12.590Z,7.80
2018-12-25T17:15:41.031Z,9.07
2018-12-25T17:18:11.184Z,8.73
2018-12-25T17:20:39.580Z,9.33
2018-12-25T17:23:07.981Z,8.57
2018-12-25T17:25:36.412Z,9.13
2018-12-25T17:28:04.822Z,7.73
2018-12-25T17:30:33.275Z,8.50
2018-12-25T17:33:01.677Z,7.60
2018-12-25T17:35:29.843Z,8.53
2018-12-25T17:37:58.052Z,8.93
2018-12-25T17:40:26.462Z,9.17
2018-12-25T17:42:54.902Z,9.33
2018-12-25T17:45:23.308Z,9.90
2018-12-25T17:47:51.758Z,9.60
2018-12-25T17:50:20.153Z,9.80
2018-12-25T17:52:48.354Z,10.40
2018-12-25T17:55:16.524Z,10.87
2018-12-25T17:57:44.735Z,10.10
2018-12-25T18:00:12.909Z,10.60
2018-12-25T18:02:41.112Z,9.63
2018-12-25T18:05:12.086Z,10.60
2018-12-25T18:07:39.127Z,9.93
2018-12-25T18:10:07.360Z,10.33
2018-12-25T18:12:35.517Z,10.03
2018-12-25T18:15:03.687Z,9.90
2018-12-25T18:17:31.893Z,9.40
2018-12-25T18:20:00.089Z,8.30
2018-12-25T18:22:28.463Z,8.27
2018-12-25T18:24:56.732Z,7.60
2018-12-25T18:27:24.936Z,6.43
2018-12-25T18:29:53.182Z,6.97
2018-12-25T18:32:21.398Z,8.40
2018-12-25T18:34:49.564Z,6.43
2018-12-25T18:37:17.764Z,6.47
2018-12-25T18:39:50.237Z,7.57
2018-12-25T18:42:23.223Z,7.37
2018-12-25T18:44:48.381Z,7.20
2018-12-25T18:47:16.584Z,8.00
2018-12-25T18:49:44.759Z,8.27
2018-12-25T18:52:12.976Z,7.60
2018-12-25T18:54:41.152Z,7.63
2018-12-25T18:57:09.324Z,7.50
2018-12-25T18:59:37.617Z,7.70
2018-12-25T19:02:05.991Z,6.80
2018-12-25T19:04:34.208Z,7.37
2018-12-25T19:07:02.383Z,6.77
2018-12-25T19:09:30.588Z,6.93
2018-12-25T19:11:58.765Z,7.33
2018-12-25T19:14:26.965Z,7.40
2018-12-25T19:16:55.134Z,7.33
2018-12-25T19:19:23.336Z,7.57
2018-12-25T19:21:51.512Z,8.17
2018-12-25T19:24:19.715Z,10.37
2018-12-25T19:26:47.879Z,14.70
2018-12-25T19:29:16.091Z,16.53
2018-12-25T19:31:44.264Z,13.57
2018-12-25T19:34:12.468Z,10.77
2018-12-25T19:36:40.638Z,8.20
2018-12-25T19:39:08.845Z,8.60
2018-12-25T19:41:37.081Z,9.13
2018-12-25T19:44:05.290Z,11.00
2018-12-25T19:46:33.461Z,10.40
2018-12-25T19:49:01.673Z,11.13
2018-12-25T19:51:29.843Z,11.60
2018-12-25T19:53:58.055Z,11.27
2018-12-25T19:56:26.228Z,11.43
2018-12-25T19:58:54.441Z,13.00
2018-12-25T20:01:22.621Z,13.50
2018-12-25T20:03:50.831Z,14.90
2018-12-25T20:06:37.512Z,15.10
2018-12-25T20:09:07.348Z,13.27
2018-12-25T20:11:37.153Z,12.37
2018-12-25T20:14:23.424Z,12.77
2018-12-25T20:17:08.289Z,11.00
2018-12-25T20:19:47.363Z,12.20
2018-12-25T20:22:19.913Z,11.13
2018-12-25T20:24:52.901Z,11.93
2018-12-25T20:27:22.723Z,11.00
2018-12-25T20:30:07.794Z,11.20
2018-12-25T20:32:49.795Z,10.47
2018-12-25T20:35:19.636Z,10.63
2018-12-25T20:38:05.892Z,10.97
2018-12-25T20:40:47.709Z,11.57
2018-12-25T20:43:20.432Z,9.90
2018-12-25T20:46:08.704Z,12.10
2018-12-25T20:48:38.512Z,10.27
2018-12-25T20:51:25.345Z,9.87
2018-12-25T20:54:01.121Z,10.57
2018-12-25T20:56:54.175Z,9.97
2018-12-25T20:59:42.120Z,9.50
2018-12-25T21:02:17.564Z,9.57
2018-12-25T21:04:47.398Z,9.20
2018-12-25T21:07:23.137Z,8.87
2018-12-25T21:10:09.895Z,8.57
2018-12-25T21:12:51.632Z,7.80
2018-12-25T21:15:38.099Z,9.97
2018-12-25T21:18:07.906Z,10.07
2018-12-25T21:20:43.718Z,10.90
2018-12-25T21:23:30.216Z,10.83
2018-12-25T21:26:16.688Z,10.37
2018-12-25T21:28:44.855Z,11.43
2018-12-25T21:31:13.066Z,10.33
2018-12-25T21:33:41.250Z,10.20
2018-12-25T21:36:09.491Z,9.97
2018-12-25T21:38:37.664Z,10.03
2018-12-25T21:41:06.141Z,9.83
2018-12-25T21:43:34.415Z,9.90
2018-12-25T21:46:02.630Z,10.03
2018-12-25T21:48:30.802Z,9.70
2018-12-25T21:50:59.012Z,10.13
2018-12-25T21:53:27.186Z,10.90
2018-12-25T21:55:55.393Z,10.87
2018-12-25T21:58:23.567Z,10.30
2018-12-25T22:00:51.775Z,10.53
2018-12-25T22:03:19.952Z,10.37
2018-12-25T22:05:48.165Z,10.73
2018-12-25T22:08:16.339Z,9.83
2018-12-25T22:10:44.503Z,11.67
2018-12-25T22:13:12.721Z,10.80
2018-12-25T22:15:40.892Z,10.60
2018-12-25T22:18:09.631Z,10.77
2018-12-25T22:20:37.872Z,10.63
2018-12-25T22:23:06.083Z,10.00
2018-12-25T22:25:34.395Z,10.03
2018-12-25T22:28:02.663Z,10.47
2018-12-25T22:30:30.838Z,11.03
2018-12-25T22:32:59.050Z,11.77
2018-12-25T22:35:27.229Z,11.90
2018-12-25T22:37:55.435Z,11.00
2018-12-25T22:40:23.614Z,10.53
2018-12-25T22:42:51.816Z,10.90
2018-12-25T22:45:19.988Z,11.27
2018-12-25T22:47:48.199Z,10.10
2018-12-25T22:50:16.377Z,10.23
2018-12-25T22:52:44.587Z,10.63
2018-12-25T22:55:12.768Z,12.13
2018-12-25T22:57:40.972Z,11.57
2018-12-25T23:00:10.019Z,11.03
2018-12-25T23:02:38.223Z,11.03
2018-12-25T23:05:06.396Z,10.07
2018-12-25T23:07:34.616Z,9.97
2018-12-25T23:10:03.274Z,10.43
2018-12-25T23:12:31.436Z,11.27
2018-12-25T23:14:59.647Z,11.13
2018-12-25T23:17:27.823Z,10.83
2018-12-25T23:19:56.056Z,9.53
2018-12-25T23:22:24.233Z,10.37
2018-12-25T23:24:52.440Z,10.67
2018-12-25T23:27:20.681Z,10.17
2018-12-25T23:29:48.888Z,11.43
2018-12-25T23:32:17.061Z,10.37
2018-12-25T23:34:45.283Z,10.23
2018-12-25T23:37:13.450Z,11.17
2018-12-25T23:39:41.655Z,11.87
2018-12-25T23:42:09.840Z,10.93
2018-12-25T23:44:38.053Z,10.57
2018-12-25T23:47:06.229Z,10.73
2018-12-25T23:49:34.441Z,10.03
2018-12-25T23:52:02.621Z,10.90
2018-12-25T23:54:30.829Z,9.63
2018-12-25T23:56:59.007Z,11.00
2018-12-25T23:59:27.216Z,11.20
